Time;durP1;ratioP1;P1;durP2;ratioP2;P2;SDS_P1;SDS_P2;PMS_P1;PMS_P2;Temp;Humidity;BMP_temperature;BMP_pressure;BME280_temperature;BME280_humidity;BME280_pressure;Samples;Min_cycle;Max_cycle;Signal;HPM_P1;HPM_P2
2023/08/12 00:00:12;;;;;;;0.50;0.20;;;;;;;21.32;97.70;100380.66;5005097;28;20519;-49
2023/08/12 00:02:40;;;;;;;0.50;0.20;;;;;;;21.32;97.78;100380.66;5000522;28;20498;-50
2023/08/12 00:05:07;;;;;;;0.50;0.20;;;;;;;21.12;99.21;100379.34;5000713;28;20508;-49
2023/08/12 00:07:34;;;;;;;0.50;0.30;;;;;;;21.15;99.42;100376.41;5007217;28;20489;-50
2023/08/12 00:10:03;;;;;;;3.00;1.23;;;;;;;21.18;99.15;100373.50;4997727;28;20448;-49
2023/08/12 00:12:33;;;;;;;0.50;0.20;;;;;;;21.17;98.70;100377.16;4987457;28;20452;-49
2023/08/12 00:15:00;;;;;;;0.50;0.20;;;;;;;21.04;100.00;100374.47;5000174;28;20944;-49
2023/08/12 00:17:27;;;;;;;0.50;0.20;;;;;;;21.13;99.30;100376.53;5005945;28;20449;-49
2023/08/12 00:19:53;;;;;;;0.50;0.20;;;;;;;21.04;98.89;100365.50;5005686;28;20543;-48
2023/08/12 00:22:20;;;;;;;0.50;0.30;;;;;;;21.12;99.62;100368.53;5001055;28;20476;-49
2023/08/12 00:24:46;;;;;;;0.50;0.20;;;;;;;20.86;99.30;100365.84;5000158;28;20504;-49
2023/08/12 00:27:13;;;;;;;0.50;0.20;;;;;;;21.00;99.88;100354.03;5005205;28;20500;-49
2023/08/12 00:29:39;;;;;;;0.50;0.20;;;;;;;21.21;99.95;100355.19;5006666;28;20873;-48
2023/08/12 00:32:09;;;;;;;0.50;0.20;;;;;;;21.18;99.47;100350.03;5001644;28;20449;-49
2023/08/12 00:34:36;;;;;;;0.50;0.20;;;;;;;20.78;100.00;100351.97;4999804;28;20540;-49
2023/08/12 00:37:02;;;;;;;0.50;0.20;;;;;;;20.87;100.00;100345.94;5003081;28;20502;-49
2023/08/12 00:39:29;;;;;;;0.50;0.20;;;;;;;21.09;100.00;100345.25;5006082;28;20448;-49
2023/08/12 00:41:55;;;;;;;0.50;0.30;;;;;;;21.16;100.00;100345.69;5002547;28;20827;-49
2023/08/12 00:44:22;;;;;;;0.50;0.30;;;;;;;21.12;100.00;100345.06;4999364;28;20867;-49
2023/08/12 00:46:50;;;;;;;0.50;0.20;;;;;;;21.16;100.00;100357.38;5012538;28;20485;-49
2023/08/12 00:49:17;;;;;;;0.50;0.20;;;;;;;21.09;100.00;100358.78;4999701;28;20449;-49
2023/08/12 00:51:45;;;;;;;0.50;0.20;;;;;;;20.99;100.00;100352.31;5002725;28;20469;-49
2023/08/12 00:54:14;;;;;;;0.50;0.20;;;;;;;21.17;100.00;100356.41;5006313;28;20457;-49
2023/08/12 00:56:41;;;;;;;0.50;0.30;;;;;;;21.17;100.00;100353.69;5003659;28;20965;-49
2023/08/12 00:59:11;;;;;;;0.50;0.20;;;;;;;21.28;100.00;100359.25;4999476;28;20510;-49
2023/08/12 01:01:43;;;;;;;0.50;0.20;;;;;;;21.22;100.00;100356.06;5001440;28;20469;-49
2023/08/12 01:04:10;;;;;;;0.50;0.20;;;;;;;21.25;100.00;100364.88;5006279;28;20504;-50
2023/08/12 01:06:37;;;;;;;0.50;0.20;;;;;;;21.36;100.00;100374.03;5004814;28;20493;-49
2023/08/12 01:09:05;;;;;;;0.50;0.20;;;;;;;21.43;99.46;100383.44;4997557;28;20481;-49
2023/08/12 01:11:41;;;;;;;0.50;0.20;;;;;;;21.25;99.67;100385.66;5004924;28;21084;-49
2023/08/12 01:14:32;;;;;;;0.50;0.20;;;;;;;21.28;99.05;100382.72;5006231;28;20455;-49
2023/08/12 01:17:03;;;;;;;0.50;0.20;;;;;;;21.23;98.83;100384.84;5005375;28;20461;-49
2023/08/12 01:19:35;;;;;;;0.50;0.20;;;;;;;21.29;99.24;100390.72;5003712;28;20452;-49
2023/08/12 01:22:03;;;;;;;0.50;0.40;;;;;;;21.28;100.00;100375.47;4999328;28;20480;-49
2023/08/12 01:24:41;;;;;;;0.50;0.20;;;;;;;21.24;100.00;100373.03;5000911;28;20488;-50
2023/08/12 01:27:09;;;;;;;1.47;1.03;;;;;;;21.20;100.00;100372.41;4999497;28;20578;-49
2023/08/12 01:29:46;;;;;;;0.60;0.40;;;;;;;21.25;100.00;100370.28;4999089;28;20465;-49
2023/08/12 01:32:30;;;;;;;0.50;0.20;;;;;;;21.18;100.00;100368.09;5004821;28;20453;-49
2023/08/12 01:35:15;;;;;;;0.50;0.30;;;;;;;21.06;100.00;100367.13;5006012;28;20424;-49
2023/08/12 01:37:43;;;;;;;0.50;0.20;;;;;;;21.19;100.00;100367.09;5005717;28;20922;-50
2023/08/12 01:40:11;;;;;;;0.50;0.20;;;;;;;21.28;100.00;100374.59;5003168;28;20477;-50
2023/08/12 01:42:40;;;;;;;0.50;0.20;;;;;;;21.23;100.00;100377.59;5005967;28;20514;-50
2023/08/12 01:45:07;;;;;;;0.50;0.20;;;;;;;21.16;100.00;100380.84;5001278;28;20459;-49
2023/08/12 01:47:33;;;;;;;0.40;0.20;;;;;;;20.94;100.00;100379.66;5010037;28;20546;-49
2023/08/12 01:50:00;;;;;;;0.50;0.20;;;;;;;21.00;100.00;100381.06;5001296;28;20481;-50
2023/08/12 01:52:27;;;;;;;0.50;0.30;;;;;;;20.92;100.00;100400.50;4998895;28;20453;-49
2023/08/12 01:54:53;;;;;;;0.50;0.30;;;;;;;20.85;100.00;100396.53;5004498;28;20449;-51
2023/08/12 01:57:19;;;;;;;0.50;0.20;;;;;;;20.82;100.00;100387.75;5006224;28;20452;-49
2023/08/12 01:59:46;;;;;;;0.50;0.20;;;;;;;20.93;100.00;100390.56;5001347;28;20476;-50
2023/08/12 02:02:13;;;;;;;0.50;0.30;;;;;;;20.96;100.00;100395.75;4999517;28;20449;-49
2023/08/12 02:04:42;;;;;;;0.50;0.20;;;;;;;20.97;100.00;100401.09;5004023;28;20454;-49
2023/08/12 02:07:08;;;;;;;0.50;0.20;;;;;;;20.91;100.00;100411.44;5005553;28;20574;-50
2023/08/12 02:09:35;;;;;;;0.47;0.20;;;;;;;20.85;100.00;100425.38;4997048;28;20449;-49
2023/08/12 02:12:02;;;;;;;0.50;0.20;;;;;;;20.94;100.00;100431.00;5005754;28;20494;-49
2023/08/12 02:14:28;;;;;;;0.50;0.20;;;;;;;20.95;100.00;100446.25;5001298;28;20475;-51
2023/08/12 02:16:55;;;;;;;0.50;0.20;;;;;;;20.95;100.00;100464.28;4998615;28;20445;-49
2023/08/12 02:19:21;;;;;;;0.50;0.20;;;;;;;20.89;100.00;100479.13;5003035;28;20536;-50
2023/08/12 02:21:48;;;;;;;0.50;0.20;;;;;;;21.16;100.00;100452.00;5005635;28;20595;-49
2023/08/12 02:24:14;;;;;;;3.77;3.43;;;;;;;21.01;100.00;100455.78;5001442;28;20454;-50
2023/08/12 02:26:41;;;;;;;0.50;0.20;;;;;;;21.09;100.00;100439.00;4998302;28;20994;-49
2023/08/12 02:29:07;;;;;;;0.50;0.20;;;;;;;21.19;100.00;100430.16;5004669;28;20544;-49
2023/08/12 02:31:34;;;;;;;0.50;0.20;;;;;;;21.06;100.00;100418.47;5008494;28;20559;-49
2023/08/12 02:34:00;;;;;;;0.50;0.20;;;;;;;21.05;100.00;100415.88;5004694;28;20502;-50
2023/08/12 02:36:27;;;;;;;0.40;0.20;;;;;;;21.08;100.00;100415.66;5002308;28;20424;-49
2023/08/12 02:38:53;;;;;;;0.50;0.20;;;;;;;20.91;100.00;100425.81;5013323;28;20453;-49
2023/08/12 02:41:19;;;;;;;0.70;0.70;;;;;;;20.94;100.00;100409.38;5001798;28;20535;-50
2023/08/12 02:43:46;;;;;;;0.50;0.20;;;;;;;20.95;100.00;100403.00;5005541;28;20477;-49
2023/08/12 02:46:15;;;;;;;0.50;0.20;;;;;;;20.75;100.00;100395.44;5012557;28;20870;-49
2023/08/12 02:48:42;;;;;;;0.40;0.20;;;;;;;20.55;100.00;100385.09;5003317;28;20449;-49
2023/08/12 02:51:09;;;;;;;0.50;0.20;;;;;;;20.84;100.00;100391.22;5008256;28;21008;-49
2023/08/12 02:53:36;;;;;;;0.50;0.20;;;;;;;20.94;100.00;100385.06;5007414;28;20427;-49
2023/08/12 02:56:03;;;;;;;0.67;0.67;;;;;;;20.93;100.00;100388.72;5001602;28;20448;-49
2023/08/12 02:58:29;;;;;;;0.50;0.20;;;;;;;21.00;100.00;100398.16;5002818;28;20456;-49
2023/08/12 03:00:56;;;;;;;0.50;0.20;;;;;;;20.81;100.00;100397.69;5007929;28;20484;-50
2023/08/12 03:03:23;;;;;;;0.50;0.20;;;;;;;20.80;100.00;100395.97;5006144;28;20522;-50
2023/08/12 03:05:49;;;;;;;0.43;0.20;;;;;;;20.91;100.00;100379.88;5001259;28;20449;-49
2023/08/12 03:08:16;;;;;;;0.40;0.20;;;;;;;20.92;100.00;100341.06;5004628;28;20566;-48
2023/08/12 03:10:45;;;;;;;0.40;0.20;;;;;;;20.45;100.00;100316.50;5001208;28;20557;-49
2023/08/12 03:13:11;;;;;;;0.50;0.20;;;;;;;20.55;100.00;100331.94;5001887;28;20475;-49
2023/08/12 03:15:39;;;;;;;0.50;0.20;;;;;;;20.66;100.00;100342.88;5007712;28;20473;-49
2023/08/12 03:18:06;;;;;;;0.50;0.20;;;;;;;20.70;100.00;100341.72;5008023;28;20543;-49
2023/08/12 03:20:32;;;;;;;0.50;0.20;;;;;;;20.82;100.00;100333.69;4988621;28;20473;-49
2023/08/12 03:23:00;;;;;;;0.50;0.20;;;;;;;20.75;100.00;100335.97;5001043;28;20878;-50
2023/08/12 03:25:26;;;;;;;0.43;0.20;;;;;;;20.73;100.00;100328.97;5007302;28;20512;-49
2023/08/12 03:27:53;;;;;;;0.47;0.27;;;;;;;20.83;100.00;100328.22;5007631;28;20492;-49
2023/08/12 03:30:19;;;;;;;0.50;0.20;;;;;;;20.98;100.00;100331.66;5001653;28;20486;-49
2023/08/12 03:32:46;;;;;;;0.50;0.20;;;;;;;21.06;100.00;100331.09;5001096;28;20453;-49
2023/08/12 03:35:12;;;;;;;0.43;0.20;;;;;;;21.04;100.00;100333.94;5006642;28;20449;-50
2023/08/12 03:37:38;;;;;;;0.40;0.20;;;;;;;21.10;100.00;100321.78;5007501;28;20451;-49
2023/08/12 03:40:06;;;;;;;0.40;0.20;;;;;;;21.16;100.00;100326.78;5003334;28;20493;-49
2023/08/12 03:42:32;;;;;;;1.17;1.17;;;;;;;21.04;100.00;100328.53;5007326;28;20452;-49
2023/08/12 03:44:59;;;;;;;0.40;0.20;;;;;;;20.98;100.00;100315.47;5001605;28;20966;-49
2023/08/12 03:47:25;;;;;;;0.50;0.20;;;;;;;21.02;100.00;100321.50;5012822;28;20546;-50
2023/08/12 03:49:52;;;;;;;0.40;0.20;;;;;;;20.99;100.00;100320.75;5001999;28;20500;-49
2023/08/12 03:52:18;;;;;;;0.50;0.20;;;;;;;21.07;100.00;100325.59;5000464;28;20460;-50
2023/08/12 03:54:45;;;;;;;0.40;0.20;;;;;;;20.98;100.00;100326.25;5006523;28;20449;-50
2023/08/12 03:57:11;;;;;;;0.40;0.20;;;;;;;20.98;100.00;100320.88;5007165;28;20535;-50
2023/08/12 03:59:38;;;;;;;0.40;0.20;;;;;;;20.95;100.00;100318.34;5001503;28;20507;-51
2023/08/12 04:02:05;;;;;;;0.40;0.20;;;;;;;20.79;100.00;100305.06;5000496;28;20536;-49
2023/08/12 04:04:32;;;;;;;0.40;0.20;;;;;;;20.91;100.00;100297.94;5005562;28;20839;-50
2023/08/12 04:06:58;;;;;;;0.40;0.20;;;;;;;20.89;100.00;100305.28;5007015;28;20961;-49
2023/08/12 04:09:25;;;;;;;0.40;0.20;;;;;;;21.02;100.00;100310.69;4997508;28;20536;-49
2023/08/12 04:11:51;;;;;;;0.40;0.20;;;;;;;21.11;100.00;100318.16;5006637;28;20534;-50
2023/08/12 04:14:18;;;;;;;0.50;0.30;;;;;;;21.20;100.00;100320.16;5001829;28;20457;-49
2023/08/12 04:16:44;;;;;;;0.50;0.20;;;;;;;21.36;100.00;100312.69;4999917;28;20428;-49
2023/08/12 04:19:11;;;;;;;0.50;0.30;;;;;;;21.19;100.00;100313.03;5005211;28;20449;-49
2023/08/12 04:21:37;;;;;;;0.40;0.20;;;;;;;21.25;100.00;100312.63;5006706;28;20556;-50
2023/08/12 04:24:04;;;;;;;0.50;0.30;;;;;;;21.35;100.00;100310.09;5002012;28;20540;-50
2023/08/12 04:26:30;;;;;;;0.50;0.20;;;;;;;21.31;100.00;100308.63;4999743;28;20450;-50
2023/08/12 04:28:57;;;;;;;0.40;0.20;;;;;;;21.37;100.00;100309.00;5004339;28;20435;-49
2023/08/12 04:31:23;;;;;;;0.43;0.20;;;;;;;21.41;100.00;100310.53;5006097;28;20539;-50
2023/08/12 04:33:52;;;;;;;0.40;0.20;;;;;;;21.08;100.00;100312.94;5002199;28;20422;-49
2023/08/12 04:36:19;;;;;;;0.40;0.30;;;;;;;20.94;100.00;100312.09;4999812;28;20457;-49
2023/08/12 04:38:46;;;;;;;0.50;0.20;;;;;;;21.06;100.00;100306.78;5009936;28;20448;-49
2023/08/12 04:41:12;;;;;;;0.40;0.20;;;;;;;21.26;100.00;100307.13;4999466;28;20528;-50
2023/08/12 04:43:39;;;;;;;0.50;0.20;;;;;;;21.20;100.00;100306.66;5003689;28;20496;-49
2023/08/12 04:46:05;;;;;;;0.40;0.20;;;;;;;21.23;100.00;100301.88;5009757;28;20511;-49
2023/08/12 04:48:32;;;;;;;0.50;0.20;;;;;;;21.33;100.00;100295.84;5002829;28;20980;-50
2023/08/12 04:51:02;;;;;;;0.40;0.20;;;;;;;21.23;100.00;100291.06;5005214;28;20478;-50
2023/08/12 04:53:29;;;;;;;0.40;0.20;;;;;;;21.24;100.00;100292.81;5003848;28;20503;-50
2023/08/12 04:55:56;;;;;;;0.40;0.20;;;;;;;21.36;100.00;100291.06;4999495;28;20939;-49
2023/08/12 04:58:23;;;;;;;0.40;0.20;;;;;;;21.42;100.00;100285.22;5001754;28;20957;-49
2023/08/12 05:00:52;;;;;;;0.40;0.20;;;;;;;21.53;100.00;100288.00;5005967;28;20508;-49
2023/08/12 05:03:18;;;;;;;0.40;0.20;;;;;;;21.89;100.00;100292.47;5004220;28;20484;-49
2023/08/12 05:05:52;;;;;;;0.40;0.20;;;;;;;21.89;100.00;100291.63;4999316;28;20515;-49
2023/08/12 05:08:19;;;;;;;0.40;0.20;;;;;;;21.81;100.00;100300.34;5002537;28;20485;-49
2023/08/12 05:10:49;;;;;;;0.40;0.20;;;;;;;21.58;100.00;100296.63;4998965;28;20473;-49
2023/08/12 05:13:16;;;;;;;0.40;0.20;;;;;;;22.33;100.00;100295.50;4999488;28;20851;-50
2023/08/12 05:15:47;;;;;;;0.50;0.20;;;;;;;22.80;100.00;100302.63;5005457;28;20500;-49
2023/08/12 05:18:14;;;;;;;0.40;0.20;;;;;;;22.24;100.00;100305.22;5005957;28;20528;-50
2023/08/12 05:20:41;;;;;;;0.40;0.20;;;;;;;22.39;100.00;100311.31;5000386;28;20552;-49
2023/08/12 05:23:12;;;;;;;0.50;0.30;;;;;;;22.58;100.00;100303.44;4999291;28;20472;-50
2023/08/12 05:25:39;;;;;;;0.47;0.23;;;;;;;23.06;100.00;100300.59;5004137;28;20453;-49
2023/08/12 05:28:06;;;;;;;0.40;0.20;;;;;;;23.64;100.00;100304.88;5005747;28;20499;-50
2023/08/12 05:30:32;;;;;;;0.40;0.20;;;;;;;23.74;100.00;100299.56;5001472;28;20480;-49
2023/08/12 05:32:58;;;;;;;0.43;0.20;;;;;;;23.75;100.00;100311.28;4998952;28;20453;-49
2023/08/12 05:35:25;;;;;;;0.40;0.20;;;;;;;24.40;99.20;100303.03;5003249;28;20435;-49
2023/08/12 05:37:52;;;;;;;0.50;0.20;;;;;;;24.69;96.84;100305.94;5006138;28;20444;-50
2023/08/12 05:40:19;;;;;;;0.50;0.20;;;;;;;24.69;97.76;100308.66;5002765;28;20473;-50
2023/08/12 05:42:45;;;;;;;0.50;0.20;;;;;;;24.58;98.39;100299.69;5005802;28;20431;-49
2023/08/12 05:45:12;;;;;;;0.50;0.20;;;;;;;24.55;98.10;100303.53;5001798;28;20416;-49
2023/08/12 05:47:38;;;;;;;0.50;0.20;;;;;;;25.01;97.99;100303.13;5009220;28;20498;-49
2023/08/12 05:50:06;;;;;;;0.50;0.33;;;;;;;25.41;96.98;100305.00;5001815;28;20830;-49
2023/08/12 05:52:32;;;;;;;0.50;0.30;;;;;;;24.66;97.33;100303.44;4999291;28;20461;-49
2023/08/12 05:54:59;;;;;;;0.50;0.20;;;;;;;24.54;99.51;100307.25;5002490;28;20424;-49
2023/08/12 05:57:25;;;;;;;0.50;0.30;;;;;;;25.24;96.19;100313.81;5005425;28;20453;-50
2023/08/12 05:59:55;;;;;;;0.50;0.30;;;;;;;25.13;96.21;100306.59;5002777;28;20476;-49
2023/08/12 06:02:21;;;;;;;0.60;0.60;;;;;;;25.59;94.84;100308.75;4999129;28;20433;-50
2023/08/12 06:04:47;;;;;;;0.50;0.30;;;;;;;25.40;95.23;100309.59;5005139;28;20484;-50
2023/08/12 06:07:14;;;;;;;0.50;0.30;;;;;;;25.57;94.84;100301.75;5009402;28;20459;-49
2023/08/12 06:09:40;;;;;;;0.50;0.30;;;;;;;25.82;93.43;100303.13;4998918;28;21033;-49
2023/08/12 06:12:07;;;;;;;0.50;0.30;;;;;;;26.25;93.04;100305.44;5009053;28;20788;-50
2023/08/12 06:14:37;;;;;;;0.50;0.30;;;;;;;25.89;95.51;100310.56;5006637;28;20433;-49
2023/08/12 06:17:03;;;;;;;0.50;0.30;;;;;;;26.17;90.95;100310.72;5001787;28;20922;-49
2023/08/12 06:19:30;;;;;;;0.50;0.30;;;;;;;25.87;94.87;100322.59;5004063;28;20979;-50
2023/08/12 06:21:56;;;;;;;0.50;0.30;;;;;;;25.50;95.29;100330.53;5008776;28;20795;-49
2023/08/12 06:24:23;;;;;;;0.50;0.30;;;;;;;25.54;94.64;100329.25;5007494;28;20481;-49
2023/08/12 06:26:49;;;;;;;0.50;0.30;;;;;;;25.19;98.00;100324.25;5001983;28;20456;-49
2023/08/12 06:29:16;;;;;;;0.50;0.23;;;;;;;24.67;99.78;100326.06;5003345;28;20520;-51
2023/08/12 06:31:42;;;;;;;0.50;0.30;;;;;;;24.86;100.00;100331.63;5008173;28;21007;-49
2023/08/12 06:34:09;;;;;;;0.50;0.23;;;;;;;24.74;100.00;100329.97;5008150;28;20457;-49
2023/08/12 06:36:35;;;;;;;0.50;0.27;;;;;;;24.63;100.00;100332.75;5001622;28;21003;-49
2023/08/12 06:39:03;;;;;;;0.50;0.20;;;;;;;24.74;98.31;100336.28;5011391;28;20481;-49
2023/08/12 06:41:29;;;;;;;0.50;0.20;;;;;;;24.59;100.00;100337.63;5000452;28;20824;-49
2023/08/12 06:43:56;;;;;;;0.50;0.30;;;;;;;24.56;100.00;100340.59;5002458;28;20510;-50
2023/08/12 06:46:22;;;;;;;0.50;0.20;;;;;;;24.55;98.81;100341.59;5014094;28;20435;-50
2023/08/12 06:48:49;;;;;;;0.50;0.20;;;;;;;24.70;100.00;100337.56;5002644;28;20496;-49
2023/08/12 06:51:15;;;;;;;0.47;0.20;;;;;;;24.67;98.62;100334.22;5008268;28;20496;-50
2023/08/12 06:53:42;;;;;;;0.50;0.20;;;;;;;24.56;99.39;100326.16;5008109;28;20485;-50
2023/08/12 06:56:08;;;;;;;0.50;0.30;;;;;;;24.67;100.00;100328.78;5001351;28;20909;-50
2023/08/12 06:58:35;;;;;;;0.50;0.30;;;;;;;24.76;98.05;100337.00;5001755;28;20876;-50
2023/08/12 07:01:01;;;;;;;0.50;0.30;;;;;;;24.80;98.46;100333.00;5007886;28;21047;-49
2023/08/12 07:03:28;;;;;;;0.50;0.23;;;;;;;24.56;99.58;100335.16;5007840;28;20917;-50
2023/08/12 07:05:55;;;;;;;0.50;0.20;;;;;;;24.78;98.28;100340.44;5008213;28;20804;-50
2023/08/12 07:08:21;;;;;;;0.50;0.20;;;;;;;24.96;100.00;100339.88;5007865;28;20520;-52
2023/08/12 07:10:47;;;;;;;0.50;0.30;;;;;;;24.97;100.00;100347.03;5007881;28;20458;-50
2023/08/12 07:13:14;;;;;;;0.50;0.30;;;;;;;24.56;100.00;100339.75;5007800;28;20419;-49
2023/08/12 07:15:40;;;;;;;0.50;0.20;;;;;;;24.62;99.48;100340.06;5001052;28;20444;-48
2023/08/12 07:18:07;;;;;;;0.50;0.27;;;;;;;24.48;99.54;100332.22;5001177;28;20476;-49
2023/08/12 07:20:34;;;;;;;0.50;0.30;;;;;;;24.70;100.00;100339.41;5007180;28;20454;-48
2023/08/12 07:23:00;;;;;;;0.50;0.30;;;;;;;25.05;99.07;100347.22;5007505;28;20484;-48
2023/08/12 07:25:27;;;;;;;0.50;0.23;;;;;;;25.05;100.00;100349.94;5002134;28;20501;-49
2023/08/12 07:27:53;;;;;;;0.50;0.27;;;;;;;25.16;99.82;100360.75;5000501;28;20485;-48
2023/08/12 07:30:19;;;;;;;0.50;0.20;;;;;;;25.06;97.95;100354.38;5023124;22;20464;-53
2023/08/12 07:32:46;;;;;;;0.50;0.30;;;;;;;25.03;99.16;100344.66;5012508;28;20987;-53
2023/08/12 07:35:12;;;;;;;0.50;0.30;;;;;;;24.60;100.00;100335.75;5002102;28;20904;-53
2023/08/12 07:37:39;;;;;;;0.50;0.20;;;;;;;24.89;100.00;100344.09;5000639;28;20933;-52
2023/08/12 07:40:07;;;;;;;0.50;0.20;;;;;;;24.80;99.30;100348.47;5005814;28;20446;-53
2023/08/12 07:42:34;;;;;;;0.50;0.23;;;;;;;24.93;100.00;100346.41;5007167;28;20921;-52
2023/08/12 07:45:00;;;;;;;0.50;0.20;;;;;;;25.17;100.00;100348.00;5016717;28;20465;-52
2023/08/12 07:47:27;;;;;;;0.50;0.23;;;;;;;25.15;100.00;100353.59;5017379;28;20452;-52
2023/08/12 07:49:53;;;;;;;0.60;0.60;;;;;;;25.30;99.93;100354.94;5002292;28;20540;-54
2023/08/12 07:52:20;;;;;;;0.67;0.67;;;;;;;25.26;98.45;100353.50;5000663;28;20444;-53
2023/08/12 07:54:46;;;;;;;0.50;0.30;;;;;;;25.35;99.09;100351.81;5005700;28;20507;-53
2023/08/12 07:57:13;;;;;;;0.50;0.30;;;;;;;25.61;98.06;100363.94;5007282;28;20793;-53
2023/08/12 07:59:39;;;;;;;0.50;0.40;;;;;;;25.64;96.43;100377.31;5002676;28;20427;-53
2023/08/12 08:02:06;;;;;;;0.50;0.23;;;;;;;25.67;98.28;100373.44;5000397;28;20473;-52
2023/08/12 08:04:33;;;;;;;0.50;0.20;;;;;;;25.92;97.33;100358.47;5005316;28;20461;-53
2023/08/12 08:07:00;;;;;;;1.63;1.63;;;;;;;26.00;95.57;100361.34;5007281;28;20770;-52
2023/08/12 08:09:27;;;;;;;0.50;0.27;;;;;;;26.19;96.31;100365.97;4996807;28;20995;-53
2023/08/12 08:11:53;;;;;;;0.50;0.30;;;;;;;26.10;96.13;100354.06;5006842;28;20940;-53
2023/08/12 08:14:22;;;;;;;0.50;0.23;;;;;;;25.86;95.73;100343.53;5002413;28;20427;-53
2023/08/12 08:16:50;;;;;;;0.50;0.20;;;;;;;25.65;100.00;100353.66;4999724;28;20480;-53
2023/08/12 08:19:17;;;;;;;0.50;0.27;;;;;;;25.62;100.00;100352.03;5004168;28;20477;-53
2023/08/12 08:21:45;;;;;;;0.50;0.30;;;;;;;25.63;100.00;100353.78;5006581;28;20469;-52
2023/08/12 08:24:12;;;;;;;0.50;0.30;;;;;;;25.58;99.91;100345.16;5003101;28;20456;-53
2023/08/12 08:26:40;;;;;;;0.50;0.30;;;;;;;25.69;100.00;100339.63;5000165;28;20427;-52
2023/08/12 08:29:07;;;;;;;0.50;0.20;;;;;;;25.59;97.75;100333.25;5003119;28;20499;-53
2023/08/12 08:31:33;;;;;;;0.50;0.33;;;;;;;25.57;99.02;100335.28;5009821;28;20478;-53
2023/08/12 08:34:00;;;;;;;0.50;0.30;;;;;;;25.46;100.00;100323.63;5002381;28;20432;-52
2023/08/12 08:36:26;;;;;;;0.50;0.20;;;;;;;25.30;100.00;100332.31;5006299;28;20515;-53
2023/08/12 08:38:52;;;;;;;0.50;0.30;;;;;;;25.50;100.00;100336.84;5003907;28;20857;-52
2023/08/12 08:41:19;;;;;;;0.50;0.20;;;;;;;25.71;100.00;100341.38;4999398;28;20578;-52
2023/08/12 08:43:48;;;;;;;0.50;0.20;;;;;;;25.45;100.00;100335.50;5001968;28;20458;-52
2023/08/12 08:46:15;;;;;;;0.50;0.20;;;;;;;25.49;100.00;100345.13;5010895;28;20517;-52
2023/08/12 08:48:43;;;;;;;0.50;0.30;;;;;;;25.62;100.00;100340.28;5001499;28;20489;-57
2023/08/12 08:51:10;;;;;;;0.50;0.23;;;;;;;25.63;100.00;100334.72;5006508;28;21047;-53
2023/08/12 08:53:38;;;;;;;0.50;0.30;;;;;;;25.59;100.00;100333.25;5005260;28;20474;-52
2023/08/12 08:56:06;;;;;;;0.77;0.53;;;;;;;25.50;99.55;100317.78;4999514;28;20801;-52
2023/08/12 08:58:40;;;;;;;0.50;0.20;;;;;;;25.44;98.33;100304.72;4999496;28;20445;-53
2023/08/12 09:01:09;;;;;;;0.50;0.27;;;;;;;25.45;97.13;100302.84;5005511;28;20473;-52
2023/08/12 09:03:38;;;;;;;0.50;0.20;;;;;;;25.76;100.00;100298.22;5005585;28;20463;-53
2023/08/12 09:06:04;;;;;;;0.50;0.20;;;;;;;25.79;100.00;100317.03;5000781;28;20445;-52
2023/08/12 09:08:32;;;;;;;0.50;0.20;;;;;;;25.51;100.00;100305.03;5000760;28;20523;-54
2023/08/12 09:11:01;;;;;;;0.50;0.20;;;;;;;25.93;100.00;100317.47;5000644;28;21018;-53
2023/08/12 09:13:28;;;;;;;0.50;0.20;;;;;;;26.12;97.99;100313.88;4999378;28;20449;-52
2023/08/12 09:15:55;;;;;;;0.50;0.27;;;;;;;26.68;95.88;100328.66;5038746;28;20486;-52
2023/08/12 09:18:24;;;;;;;0.50;0.30;;;;;;;26.67;93.64;100329.66;4999028;28;20453;-52
2023/08/12 09:20:51;;;;;;;0.50;0.30;;;;;;;26.34;96.49;100330.97;5004189;28;20964;-53
2023/08/12 09:23:18;;;;;;;0.50;0.30;;;;;;;26.12;97.13;100318.47;5006055;28;20452;-53
2023/08/12 09:25:45;;;;;;;0.50;0.30;;;;;;;25.94;97.45;100318.34;5001612;28;20926;-53
2023/08/12 09:28:13;;;;;;;0.50;0.30;;;;;;;25.95;98.66;100312.75;4999179;28;20493;-53
2023/08/12 09:30:39;;;;;;;0.50;0.20;;;;;;;25.73;100.00;100318.44;5004714;28;20473;-52
2023/08/12 09:33:08;;;;;;;0.50;0.30;;;;;;;25.44;100.00;100333.78;5009810;28;20483;-53
2023/08/12 09:35:38;;;;;;;0.50;0.30;;;;;;;25.62;100.00;100346.59;5002751;28;20522;-53
2023/08/12 09:38:08;;;;;;;0.50;0.30;;;;;;;25.47;100.00;100360.72;5001112;28;20453;-53
2023/08/12 09:40:35;;;;;;;0.50;0.30;;;;;;;25.45;100.00;100352.72;5005704;28;20475;-53
2023/08/12 09:43:03;;;;;;;0.50;0.30;;;;;;;25.36;100.00;100348.13;5009792;28;20450;-53
2023/08/12 09:45:30;;;;;;;0.50;0.20;;;;;;;25.30;100.00;100354.94;5020390;28;21007;-54
2023/08/12 09:47:57;;;;;;;0.50;0.30;;;;;;;25.33;100.00;100361.97;5011915;28;20460;-53
2023/08/12 09:50:25;;;;;;;0.50;0.20;;;;;;;25.08;100.00;100374.16;5003166;28;20512;-53
2023/08/12 09:52:53;;;;;;;0.50;0.30;;;;;;;24.95;100.00;100373.50;5015350;28;20939;-53
2023/08/12 09:55:22;;;;;;;0.50;0.30;;;;;;;24.87;100.00;100381.44;5003358;28;20483;-52
2023/08/12 09:57:54;;;;;;;0.50;0.30;;;;;;;24.86;100.00;100406.94;4996476;28;20436;-53
2023/08/12 10:00:25;;;;;;;0.50;0.30;;;;;;;24.67;100.00;100426.66;5009905;28;20448;-53
2023/08/12 10:02:52;;;;;;;0.50;0.23;;;;;;;24.60;100.00;100429.06;5004550;28;20995;-54
2023/08/12 10:05:25;;;;;;;0.50;0.20;;;;;;;24.43;100.00;100408.75;5002997;28;20453;-53
2023/08/12 10:07:53;;;;;;;0.50;0.30;;;;;;;24.09;100.00;100372.63;5007662;28;20420;-53
2023/08/12 10:10:22;;;;;;;0.50;0.23;;;;;;;24.15;100.00;100376.69;5001988;28;20546;-53
2023/08/12 10:12:49;;;;;;;0.50;0.20;;;;;;;24.05;100.00;100375.72;5006326;28;20463;-53
2023/08/12 10:15:16;;;;;;;0.50;0.20;;;;;;;24.00;100.00;100369.84;5009326;28;20539;-53
2023/08/12 10:17:44;;;;;;;0.50;0.20;;;;;;;23.73;100.00;100362.97;5006495;28;20543;-54
2023/08/12 10:20:19;;;;;;;0.50;0.30;;;;;;;23.93;100.00;100364.03;5002853;28;20480;-53
2023/08/12 10:22:46;;;;;;;0.50;0.23;;;;;;;23.85;100.00;100355.69;5003570;28;20423;-53
2023/08/12 10:25:14;;;;;;;0.50;0.27;;;;;;;23.97;100.00;100360.06;5009236;28;20457;-53
2023/08/12 10:27:41;;;;;;;0.50;0.20;;;;;;;23.87;100.00;100350.97;5008692;28;20438;-53
2023/08/12 10:30:09;;;;;;;0.50;0.30;;;;;;;23.79;100.00;100367.88;5002104;28;20473;-53
2023/08/12 10:32:36;;;;;;;0.50;0.20;;;;;;;23.62;100.00;100368.41;5015150;28;20423;-53
2023/08/12 10:35:03;;;;;;;1.33;1.33;;;;;;;23.69;100.00;100339.78;5002304;28;20452;-52
2023/08/12 10:37:33;;;;;;;0.40;0.20;;;;;;;23.72;100.00;100335.97;5002441;28;20980;-53
2023/08/12 10:40:07;;;;;;;0.50;0.20;;;;;;;23.80;100.00;100339.75;5005377;28;20438;-53
2023/08/12 10:42:47;;;;;;;0.50;0.20;;;;;;;24.08;100.00;100332.00;5008564;28;20427;-53
2023/08/12 10:45:16;;;;;;;0.40;0.20;;;;;;;24.48;100.00;100324.09;5014926;28;20432;-53
2023/08/12 10:47:48;;;;;;;0.50;0.30;;;;;;;24.39;100.00;100319.44;5014390;28;20487;-53
2023/08/12 10:50:22;;;;;;;0.40;0.20;;;;;;;25.16;100.00;100317.22;5004621;28;21036;-53
2023/08/12 10:52:52;;;;;;;0.50;0.30;;;;;;;25.24;100.00;100317.41;5001925;28;20454;-53
2023/08/12 10:55:22;;;;;;;0.50;0.20;;;;;;;25.41;100.00;100307.72;5003425;28;20454;-53
2023/08/12 10:57:50;;;;;;;0.50;0.20;;;;;;;25.57;100.00;100299.88;5007701;28;20457;-53
2023/08/12 11:00:29;;;;;;;0.50;0.20;;;;;;;25.56;100.00;100297.28;5008793;28;20426;-52
2023/08/12 11:02:56;;;;;;;0.50;0.20;;;;;;;25.71;100.00;100270.56;5003559;28;20463;-52
2023/08/12 11:05:24;;;;;;;0.50;0.20;;;;;;;25.97;100.00;100269.88;5001652;28;21014;-53
2023/08/12 11:08:00;;;;;;;0.50;0.20;;;;;;;26.07;98.74;100269.00;5006133;28;20457;-53
2023/08/12 11:10:31;;;;;;;0.50;0.20;;;;;;;26.45;97.00;100268.13;5008074;28;20636;-53
2023/08/12 11:13:01;;;;;;;0.50;0.30;;;;;;;26.71;96.33;100266.47;5005271;28;20449;-53
2023/08/12 11:15:46;;;;;;;0.50;0.20;;;;;;;26.64;96.47;100248.16;5001580;28;20514;-53
2023/08/12 11:18:16;;;;;;;0.50;0.30;;;;;;;26.42;98.03;100225.66;5000949;28;20512;-54
2023/08/12 11:20:43;;;;;;;0.50;0.27;;;;;;;26.90;96.28;100232.84;5002024;28;20469;-53